Time;durP1;ratioP1;P1;durP2;ratioP2;P2;SDS_P1;SDS_P2;PMS_P1;PMS_P2;Temp;Humidity;BMP_temperature;BMP_pressure;BME280_temperature;BME280_humidity;BME280_pressure;Samples;Min_cycle;Max_cycle;Signal;HPM_P1;HPM_P2
2023/09/02 00:01:02;;;;;;;1.73;1.02;;;18.40;69.60;;;;;;5014673;28;20046;-68
2023/09/02 00:03:28;;;;;;;1.23;0.93;;;18.40;69.60;;;;;;5017805;28;20041;-67
2023/09/02 00:05:54;;;;;;;4.50;1.63;;;18.30;69.50;;;;;;5009939;28;20038;-73
2023/09/02 00:08:20;;;;;;;2.28;0.98;;;18.30;69.50;;;;;;5010555;28;20053;-68
2023/09/02 00:10:46;;;;;;;3.90;1.45;;;18.30;69.60;;;;;;5020325;28;20033;-70
2023/09/02 00:13:12;;;;;;;2.53;1.13;;;18.20;69.50;;;;;;5011020;28;20212;-68
2023/09/02 00:15:41;;;;;;;3.25;1.17;;;18.20;69.60;;;;;;5002298;28;20562;-71
2023/09/02 00:18:07;;;;;;;3.67;1.50;;;18.10;69.40;;;;;;5008989;28;20468;-68
2023/09/02 00:20:32;;;;;;;1.80;1.02;;;18.10;69.50;;;;;;5018500;28;20057;-72
2023/09/02 00:22:58;;;;;;;3.25;1.23;;;18.10;69.60;;;;;;5015276;28;20204;-68
2023/09/02 00:25:27;;;;;;;2.05;0.93;;;18.00;69.50;;;;;;5012464;28;20505;-69
2023/09/02 00:27:53;;;;;;;1.45;0.70;;;18.00;69.50;;;;;;5014889;28;20029;-67
2023/09/02 00:30:20;;;;;;;2.47;0.95;;;18.00;69.60;;;;;;5011124;28;20041;-70
2023/09/02 00:32:46;;;;;;;2.03;1.45;;;17.90;69.50;;;;;;5014037;28;20144;-68
2023/09/02 00:35:12;;;;;;;1.42;0.90;;;17.90;69.60;;;;;;5008006;28;20140;-67
2023/09/02 00:37:38;;;;;;;1.85;0.90;;;17.90;69.70;;;;;;5004991;28;20029;-68
2023/09/02 00:40:09;;;;;;;2.45;1.10;;;17.80;69.60;;;;;;5008707;28;20052;-71
2023/09/02 00:42:36;;;;;;;1.92;1.00;;;17.80;69.60;;;;;;5011749;28;20030;-69
2023/09/02 00:45:03;;;;;;;2.55;0.82;;;17.80;69.70;;;;;;5014069;28;20136;-70
2023/09/02 00:47:29;;;;;;;1.50;0.90;;;17.70;69.50;;;;;;5013468;28;20067;-67
2023/09/02 00:49:57;;;;;;;1.08;0.88;;;17.70;69.60;;;;;;5019225;28;20038;-68
2023/09/02 00:52:23;;;;;;;1.95;0.85;;;17.70;69.60;;;;;;5010092;28;20556;-67
2023/09/02 00:54:49;;;;;;;0.80;0.68;;;17.60;69.50;;;;;;5017271;28;20052;-71
2023/09/02 00:57:18;;;;;;;1.77;1.10;;;17.60;69.50;;;;;;5011329;28;20139;-71
2023/09/02 00:59:45;;;;;;;1.90;1.10;;;17.60;69.50;;;;;;5012131;28;20048;-70
2023/09/02 01:02:12;;;;;;;1.77;1.00;;;17.50;69.40;;;;;;5007988;28;20116;-68
2023/09/02 01:04:38;;;;;;;1.48;1.05;;;17.50;69.40;;;;;;5014049;28;20041;-68
2023/09/02 01:07:05;;;;;;;1.85;1.02;;;17.50;69.50;;;;;;5008048;28;20482;-69
2023/09/02 01:09:31;;;;;;;2.50;1.20;;;17.50;69.50;;;;;;5010850;28;20058;-68
2023/09/02 01:11:57;;;;;;;1.63;0.90;;;17.40;69.40;;;;;;5018885;28;20091;-71
2023/09/02 01:14:24;;;;;;;2.63;1.17;;;17.40;69.50;;;;;;5003621;28;20029;-73
2023/09/02 01:16:49;;;;;;;7.57;2.35;;;17.30;69.40;;;;;;4997539;28;20045;-72
2023/09/02 01:19:18;;;;;;;2.10;1.40;;;17.30;69.60;;;;;;5008269;28;20215;-71
2023/09/02 01:22:22;;;;;;;2.97;1.60;;;17.30;69.60;;;;;;5013375;28;20033;-67
2023/09/02 01:25:26;;;;;;;2.72;1.23;;;17.30;69.70;;;;;;5010597;28;20052;-71
2023/09/02 01:27:59;;;;;;;4.15;1.40;;;17.20;69.60;;;;;;5014169;28;20047;-71
2023/09/02 01:30:29;;;;;;;1.27;0.90;;;17.20;69.50;;;;;;5012407;28;20321;-69
2023/09/02 01:32:57;;;;;;;1.70;1.50;;;17.20;69.60;;;;;;5007515;28;20037;-71
2023/09/02 01:35:29;;;;;;;1.98;1.20;;;17.10;69.50;;;;;;5012758;28;20045;-68
2023/09/02 01:37:58;;;;;;;4.72;2.40;;;17.10;69.60;;;;;;5012744;28;20037;-68
2023/09/02 01:40:26;;;;;;;3.70;2.58;;;17.10;69.60;;;;;;5018959;28;20034;-69
2023/09/02 01:42:56;;;;;;;4.38;2.22;;;17.10;69.60;;;;;;5024654;28;20486;-69
2023/09/02 01:45:25;;;;;;;1.30;1.20;;;17.10;69.70;;;;;;5020146;28;20154;-69
2023/09/02 01:47:52;;;;;;;5.55;1.40;;;17.00;69.50;;;;;;5016221;28;20458;-68
2023/09/02 01:50:23;;;;;;;2.72;1.40;;;17.00;69.50;;;;;;5023870;28;20533;-68
2023/09/02 01:52:50;;;;;;;4.13;1.50;;;17.00;69.60;;;;;;5015035;28;20037;-68
2023/09/02 01:55:16;;;;;;;4.22;1.90;;;17.00;69.60;;;;;;5018969;28;20067;-69
2023/09/02 01:57:43;;;;;;;3.78;1.90;;;17.00;69.60;;;;;;5012913;28;20151;-69
2023/09/02 02:00:11;;;;;;;4.28;1.60;;;16.90;69.50;;;;;;5011756;28;20037;-71
2023/09/02 02:02:39;;;;;;;2.03;1.83;;;16.90;69.50;;;;;;5012611;28;20052;-73
2023/09/02 02:05:09;;;;;;;2.08;1.88;;;16.90;69.50;;;;;;5012889;28;20414;-71
2023/09/02 02:07:44;;;;;;;4.82;2.00;;;16.90;69.60;;;;;;5000150;28;20083;-71
2023/09/02 02:10:14;;;;;;;2.93;2.07;;;16.90;69.60;;;;;;5012025;28;20140;-71
2023/09/02 02:12:41;;;;;;;4.80;1.52;;;16.90;69.60;;;;;;5009171;28;20103;-70
2023/09/02 02:15:12;;;;;;;2.53;1.90;;;16.80;69.40;;;;;;5008785;28;20042;-71
2023/09/02 02:17:39;;;;;;;3.45;1.98;;;16.80;69.60;;;;;;5009623;28;20033;-70
2023/09/02 02:20:06;;;;;;;3.20;1.65;;;16.80;69.60;;;;;;5004892;28;20492;-68
2023/09/02 02:22:32;;;;;;;1.63;1.48;;;16.80;69.60;;;;;;5011396;28;20335;-68
2023/09/02 02:25:04;;;;;;;2.45;1.27;;;16.70;69.40;;;;;;5007355;28;20041;-69
2023/09/02 02:27:30;;;;;;;1.80;1.30;;;16.70;69.50;;;;;;5013020;28;20068;-70
2023/09/02 02:29:57;;;;;;;2.22;1.40;;;16.70;69.50;;;;;;5013436;28;20026;-68
2023/09/02 02:32:23;;;;;;;2.10;1.23;;;16.70;69.50;;;;;;5016054;28;20037;-68
2023/09/02 02:34:50;;;;;;;2.33;1.52;;;16.70;69.60;;;;;;5014139;28;20465;-71
2023/09/02 02:37:16;;;;;;;2.10;1.60;;;16.60;69.40;;;;;;5015099;28;20026;-72
2023/09/02 02:39:42;;;;;;;2.33;1.40;;;16.60;69.40;;;;;;5014101;28;20551;-70
2023/09/02 02:42:08;;;;;;;2.38;1.15;;;16.60;69.40;;;;;;5014826;28;20041;-71
2023/09/02 02:44:35;;;;;;;2.92;1.30;;;16.60;69.40;;;;;;5016068;28;20489;-70
2023/09/02 02:47:01;;;;;;;2.60;1.35;;;16.50;69.30;;;;;;5008132;28;20041;-71
2023/09/02 02:49:27;;;;;;;1.55;1.45;;;16.50;69.30;;;;;;5016010;28;20505;-67
2023/09/02 02:51:56;;;;;;;3.50;1.70;;;16.50;69.30;;;;;;5007242;28;20072;-74
2023/09/02 02:54:24;;;;;;;2.70;2.00;;;16.50;69.40;;;;;;5011374;28;20216;-71
2023/09/02 02:56:51;;;;;;;2.13;1.88;;;16.40;69.20;;;;;;5017339;28;20099;-69
2023/09/02 02:59:18;;;;;;;2.28;1.65;;;16.40;69.30;;;;;;5013472;28;20017;-68
2023/09/02 03:01:44;;;;;;;2.10;1.90;;;16.40;69.30;;;;;;5016055;28;20033;-68
2023/09/02 03:04:12;;;;;;;3.97;2.10;;;16.40;69.40;;;;;;5008922;28;20033;-67
2023/09/02 03:06:39;;;;;;;2.53;2.20;;;16.40;69.40;;;;;;5013374;28;20370;-68
2023/09/02 03:09:06;;;;;;;4.18;2.20;;;16.30;69.20;;;;;;4999240;28;20469;-68
2023/09/02 03:11:33;;;;;;;6.93;2.58;;;16.30;69.30;;;;;;5011216;28;20626;-69
2023/09/02 03:14:02;;;;;;;4.20;2.50;;;16.30;69.40;;;;;;5008710;28;20101;-70
2023/09/02 03:16:28;;;;;;;2.58;2.00;;;16.30;69.40;;;;;;5015494;28;20568;-67
2023/09/02 03:18:55;;;;;;;3.42;2.58;;;16.20;69.20;;;;;;5010627;28;20068;-67
2023/09/02 03:21:21;;;;;;;2.60;2.30;;;16.20;69.30;;;;;;5015724;28;20045;-70
2023/09/02 03:23:48;;;;;;;5.25;2.90;;;16.20;69.40;;;;;;5014011;28;20057;-70
2023/09/02 03:26:24;;;;;;;4.28;2.70;;;16.20;69.40;;;;;;5012416;28;20021;-67
2023/09/02 03:28:51;;;;;;;6.78;3.17;;;16.20;69.40;;;;;;5012016;28;20034;-71
2023/09/02 03:31:18;;;;;;;3.28;2.95;;;16.20;69.50;;;;;;5010055;28;20029;-70
2023/09/02 03:33:45;;;;;;;3.42;2.90;;;16.20;69.50;;;;;;5013367;28;20030;-67
2023/09/02 03:36:22;;;;;;;2.75;2.20;;;16.10;69.40;;;;;;5016201;28;20072;-68
2023/09/02 03:38:48;;;;;;;4.13;2.97;;;16.10;69.40;;;;;;5007187;28;20528;-70
2023/09/02 03:41:19;;;;;;;3.40;2.88;;;16.10;69.40;;;;;;5011804;28;20398;-72
2023/09/02 03:43:45;;;;;;;4.18;3.67;;;16.10;69.50;;;;;;5017456;28;20030;-73
2023/09/02 03:46:12;;;;;;;4.28;2.97;;;16.10;69.50;;;;;;5009712;28;20289;-66
2023/09/02 03:48:38;;;;;;;6.35;3.13;;;16.00;69.30;;;;;;5010899;28;20034;-67
2023/09/02 03:51:11;;;;;;;3.72;3.30;;;16.00;69.40;;;;;;5012166;28;20518;-69
2023/09/02 03:53:39;;;;;;;3.65;3.22;;;16.00;69.40;;;;;;5015277;28;20050;-70
2023/09/02 03:56:05;;;;;;;3.63;3.22;;;16.00;69.40;;;;;;5009856;28;20038;-68
2023/09/02 03:58:34;;;;;;;3.75;3.20;;;16.00;69.50;;;;;;5014507;28;20037;-69
2023/09/02 04:01:00;;;;;;;3.45;3.15;;;16.00;69.50;;;;;;5015320;28;20040;-68
2023/09/02 04:03:37;;;;;;;3.40;3.08;;;16.00;69.60;;;;;;5022951;28;20120;-71
2023/09/02 04:06:06;;;;;;;4.05;3.45;;;15.90;69.40;;;;;;5015352;28;20037;-68
2023/09/02 04:08:35;;;;;;;3.55;3.17;;;15.90;69.40;;;;;;5016290;28;20026;-71
2023/09/02 04:11:02;;;;;;;4.32;3.72;;;15.90;69.40;;;;;;5019961;28;20032;-69
2023/09/02 04:13:29;;;;;;;6.45;4.50;;;15.90;69.50;;;;;;5015329;28;20354;-67
2023/09/02 04:15:59;;;;;;;3.97;3.47;;;15.90;69.50;;;;;;5016076;28;20121;-67
2023/09/02 04:18:27;;;;;;;5.53;3.70;;;15.80;69.40;;;;;;5018164;28;20112;-71
2023/09/02 04:20:54;;;;;;;4.90;4.03;;;15.80;69.40;;;;;;5011698;28;20056;-69
2023/09/02 04:23:21;;;;;;;5.07;4.28;;;15.80;69.50;;;;;;5020214;28;20030;-71
2023/09/02 04:25:51;;;;;;;5.10;4.20;;;15.80;69.50;;;;;;5007740;28;20044;-67
2023/09/02 04:28:19;;;;;;;5.38;4.13;;;15.80;69.60;;;;;;5014705;28;20340;-68
2023/09/02 04:30:47;;;;;;;5.03;4.15;;;15.70;69.40;;;;;;5009680;28;20692;-67
2023/09/02 04:33:15;;;;;;;5.47;4.88;;;15.80;69.70;;;;;;5007663;28;20080;-71
2023/09/02 04:35:45;;;;;;;5.43;4.53;;;15.70;69.60;;;;;;5019490;28;20138;-68
2023/09/02 04:38:12;;;;;;;4.80;4.40;;;15.70;69.60;;;;;;5009143;28;20037;-69
2023/09/02 04:40:42;;;;;;;5.70;5.18;;;15.70;69.70;;;;;;5019943;28;20195;-72
2023/09/02 04:43:10;;;;;;;6.78;4.88;;;15.70;69.70;;;;;;5019572;28;20099;-71
2023/09/02 04:45:42;;;;;;;5.63;5.10;;;15.70;69.80;;;;;;5036159;28;20257;-67
2023/09/02 04:48:10;;;;;;;5.32;4.82;;;15.70;69.80;;;;;;5010473;28;20041;-70
2023/09/02 04:50:38;;;;;;;6.30;5.75;;;15.70;69.80;;;;;;5007688;28;20046;-68
2023/09/02 04:53:07;;;;;;;7.40;5.47;;;15.60;69.70;;;;;;5007817;28;20041;-71
2023/09/02 04:55:39;;;;;;;5.60;5.10;;;15.70;69.90;;;;;;5015967;28;20328;-67
2023/09/02 04:58:06;;;;;;;5.63;4.93;;;15.70;70.00;;;;;;4999199;28;20018;-71
2023/09/02 05:00:33;;;;;;;6.78;5.60;;;15.60;69.80;;;;;;5011412;28;20038;-69
2023/09/02 05:03:00;;;;;;;6.30;5.70;;;15.60;69.90;;;;;;5013861;28;20099;-70
2023/09/02 05:05:29;;;;;;;8.23;7.18;;;15.70;70.10;;;;;;5014573;28;20493;-66
2023/09/02 05:07:55;;;;;;;8.52;6.30;;;15.70;70.20;;;;;;5011913;28;20041;-70
2023/09/02 05:10:22;;;;;;;7.07;6.05;;;15.70;70.20;;;;;;5016358;28;20155;-69
2023/09/02 05:12:52;;;;;;;6.75;6.15;;;15.70;70.20;;;;;;5019447;28;20524;-68
2023/09/02 05:15:18;;;;;;;7.97;7.13;;;15.70;70.30;;;;;;5006326;28;20045;-70
2023/09/02 05:17:50;;;;;;;7.55;6.82;;;15.70;70.40;;;;;;5007647;28;20092;-72
2023/09/02 05:20:17;;;;;;;8.90;8.00;;;15.70;70.40;;;;;;5010778;28;20042;-74
2023/09/02 05:22:44;;;;;;;8.23;7.43;;;15.70;70.50;;;;;;5012602;28;20048;-69
2023/09/02 05:25:10;;;;;;;9.45;8.55;;;15.80;70.70;;;;;;5003969;28;20034;-70
2023/09/02 05:27:41;;;;;;;8.55;7.75;;;15.80;70.80;;;;;;5003870;28;20152;-69
2023/09/02 05:30:07;;;;;;;8.77;7.88;;;15.80;70.80;;;;;;5006674;28;20445;-67
2023/09/02 05:32:33;;;;;;;10.82;9.73;;;15.90;71.10;;;;;;5005439;28;20040;-67
2023/09/02 05:35:00;;;;;;;11.30;9.35;;;15.90;71.10;;;;;;5014152;28;20265;-70
2023/09/02 05:37:25;;;;;;;11.23;10.13;;;15.90;71.20;;;;;;5003007;28;20048;-68
2023/09/02 05:39:51;;;;;;;13.07;10.10;;;15.90;71.30;;;;;;5008601;28;20066;-70
2023/09/02 05:42:17;;;;;;;11.00;9.90;;;16.00;71.60;;;;;;5012078;28;20029;-71
2023/09/02 05:44:43;;;;;;;10.60;9.50;;;16.10;71.80;;;;;;5011719;28;20049;-69
2023/09/02 05:47:09;;;;;;;11.38;10.18;;;16.00;71.60;;;;;;5012833;28;20102;-72
2023/09/02 05:49:37;;;;;;;11.13;9.90;;;16.10;71.90;;;;;;5014280;28;20049;-74
2023/09/02 05:52:06;;;;;;;14.18;10.40;;;16.10;72.00;;;;;;5016941;28;20064;-68
2023/09/02 05:54:32;;;;;;;12.55;10.18;;;16.20;72.20;;;;;;5017555;28;20186;-70
2023/09/02 05:56:58;;;;;;;12.10;10.80;;;16.20;72.20;;;;;;5022892;28;20264;-67
2023/09/02 05:59:31;;;;;;;13.18;10.75;;;16.20;72.20;;;;;;5016669;28;20540;-68
2023/09/02 06:02:00;;;;;;;13.85;11.15;;;16.30;72.40;;;;;;5009743;28;20030;-67
2023/09/02 06:04:29;;;;;;;13.85;12.38;;;16.30;72.50;;;;;;5015603;28;20749;-67
2023/09/02 06:06:55;;;;;;;13.70;12.30;;;16.30;72.60;;;;;;5015126;28;20033;-70
2023/09/02 06:09:26;;;;;;;13.52;11.35;;;16.40;72.80;;;;;;5010752;28;20034;-71
2023/09/02 06:11:52;;;;;;;14.10;12.50;;;16.40;72.80;;;;;;5011455;28;20105;-77
2023/09/02 06:14:18;;;;;;;12.80;11.50;;;16.40;72.80;;;;;;5018031;28;20045;-72
2023/09/02 06:16:50;;;;;;;15.77;14.13;;;16.40;72.90;;;;;;5009570;28;20117;-70
2023/09/02 06:19:16;;;;;;;13.75;12.25;;;16.50;73.10;;;;;;5010969;28;20118;-75
2023/09/02 06:21:42;;;;;;;14.57;13.18;;;16.50;73.10;;;;;;5015178;28;20092;-69
2023/09/02 06:24:09;;;;;;;14.60;12.43;;;16.50;73.10;;;;;;5011238;28;20034;-72
2023/09/02 06:26:35;;;;;;;15.98;13.80;;;16.60;73.30;;;;;;5016070;28;20025;-69
2023/09/02 06:29:01;;;;;;;15.20;13.15;;;16.60;73.30;;;;;;5013399;28;20068;-70
2023/09/02 06:31:27;;;;;;;17.10;14.50;;;16.70;74.00;;;;;;5015389;28;20041;-71
2023/09/02 06:33:53;;;;;;;17.67;13.95;;;16.70;73.50;;;;;;5003891;28;20046;-72
2023/09/02 06:36:21;;;;;;;16.30;14.63;;;16.70;73.50;;;;;;5005412;28;20056;-69
2023/09/02 06:38:47;;;;;;;15.27;13.68;;;16.80;73.70;;;;;;5013243;28;20034;-68
2023/09/02 06:41:16;;;;;;;15.23;13.68;;;16.80;73.70;;;;;;5015312;28;20068;-72
2023/09/02 06:43:43;;;;;;;16.45;14.43;;;16.80;73.70;;;;;;5013081;28;20120;-72
2023/09/02 06:46:10;;;;;;;15.85;13.88;;;16.90;73.80;;;;;;5008864;28;20033;-70
2023/09/02 06:48:39;;;;;;;17.92;14.52;;;16.90;73.70;;;;;;5010515;28;20034;-70
2023/09/02 06:51:05;;;;;;;16.23;14.38;;;17.00;73.80;;;;;;5005119;28;20038;-71
2023/09/02 06:53:32;;;;;;;15.70;12.88;;;17.10;74.00;;;;;;5010700;28;20048;-69
2023/09/02 06:56:01;;;;;;;14.90;13.40;;;17.10;74.00;;;;;;5004233;28;20045;-69
2023/09/02 06:58:27;;;;;;;43.00;14.75;;;17.10;74.00;;;;;;5003720;28;20405;-69
2023/09/02 07:00:53;;;;;;;17.27;13.02;;;17.20;74.20;;;;;;5005166;28;20037;-69
2023/09/02 07:03:19;;;;;;;13.95;12.45;;;17.30;74.50;;;;;;5029476;28;20399;-69
2023/09/02 07:05:45;;;;;;;16.70;12.60;;;17.40;74.80;;;;;;4993277;28;20112;-71
2023/09/02 07:08:16;;;;;;;18.58;12.50;;;17.50;75.10;;;;;;5002249;28;20460;-71
2023/09/02 07:10:42;;;;;;;20.48;13.75;;;17.60;75.30;;;;;;4998602;28;20045;-68
2023/09/02 07:13:08;;;;;;;21.85;14.35;;;17.70;75.50;;;;;;5006759;28;20112;-71
2023/09/02 07:15:35;;;;;;;14.95;13.45;;;17.80;75.70;;;;;;5003646;28;20045;-69
2023/09/02 07:18:02;;;;;;;15.25;12.85;;;17.80;75.80;;;;;;5007176;28;20030;-69
2023/09/02 07:20:28;;;;;;;15.38;12.10;;;17.90;76.10;;;;;;5010464;28;20052;-69
2023/09/02 07:22:54;;;;;;;14.77;12.30;;;18.00;76.20;;;;;;5008927;28;20276;-69
2023/09/02 07:25:20;;;;;;;17.85;14.38;;;18.00;76.20;;;;;;5006273;28;20037;-71
2023/09/02 07:27:46;;;;;;;14.30;12.80;;;18.20;76.50;;;;;;5010183;28;20482;-69
2023/09/02 07:30:12;;;;;;;14.30;12.73;;;18.20;76.40;;;;;;5011990;28;20367;-70
2023/09/02 07:32:38;;;;;;;15.50;13.07;;;18.40;76.60;;;;;;5012791;28;20095;-71
2023/09/02 07:35:05;;;;;;;17.48;13.57;;;18.40;76.50;;;;;;5014289;28;20362;-72
2023/09/02 07:37:31;;;;;;;17.20;12.45;;;18.50;76.50;;;;;;5000625;28;20119;-72
2023/09/02 07:39:57;;;;;;;14.60;12.40;;;18.60;76.50;;;;;;5015052;28;20543;-70
2023/09/02 07:42:23;;;;;;;13.90;12.32;;;18.60;76.40;;;;;;5013749;28;20044;-69
2023/09/02 07:44:49;;;;;;;15.55;11.68;;;18.70;76.60;;;;;;5014708;28;20041;-70
2023/09/02 07:47:15;;;;;;;13.80;12.40;;;18.70;76.50;;;;;;5012307;28;20478;-69
2023/09/02 07:49:41;;;;;;;13.77;11.50;;;18.80;76.60;;;;;;5015442;28;20060;-71
2023/09/02 07:52:07;;;;;;;13.85;11.68;;;18.90;76.60;;;;;;5003494;28;20054;-69
2023/09/02 07:54:33;;;;;;;13.65;12.32;;;18.90;76.60;;;;;;5014745;28;20042;-70
2023/09/02 07:56:59;;;;;;;14.65;11.40;;;19.00;76.60;;;;;;5002294;28;20037;-70
2023/09/02 07:59:25;;;;;;;16.88;12.63;;;19.00;76.50;;;;;;5007906;28;20034;-69
2023/09/02 08:01:51;;;;;;;14.40;12.00;;;19.00;76.50;;;;;;5009717;28;20320;-70
2023/09/02 08:04:22;;;;;;;15.82;14.00;;;19.10;76.60;;;;;;5004275;28;20100;-70
2023/09/02 08:06:48;;;;;;;15.52;11.70;;;19.20;76.60;;;;;;5007656;28;20030;-69
2023/09/02 08:09:19;;;;;;;15.73;13.30;;;19.30;76.70;;;;;;5000969;28;20498;-69
2023/09/02 08:11:45;;;;;;;16.17;13.52;;;19.40;76.60;;;;;;5007709;28;20038;-71
2023/09/02 08:14:11;;;;;;;21.92;16.02;;;19.60;76.70;;;;;;5005600;28;20125;-69
2023/09/02 08:16:37;;;;;;;14.35;11.95;;;19.70;76.80;;;;;;5012733;28;20042;-70
2023/09/02 08:19:03;;;;;;;18.63;13.45;;;19.90;76.90;;;;;;5011634;28;20034;-72
2023/09/02 08:21:29;;;;;;;17.35;13.27;;;20.00;76.90;;;;;;5002158;28;20144;-73
2023/09/02 08:23:55;;;;;;;19.23;13.70;;;20.00;76.60;;;;;;5011242;28;20461;-70
2023/09/02 08:26:21;;;;;;;13.48;11.68;;;20.10;76.60;;;;;;5007740;28;20021;-68
2023/09/02 08:28:48;;;;;;;15.48;12.80;;;20.20;76.60;;;;;;5012878;28;20026;-69
2023/09/02 08:31:20;;;;;;;17.13;12.88;;;20.30;76.60;;;;;;5010998;28;20310;-70
2023/09/02 08:34:06;;;;;;;13.43;10.68;;;20.40;76.40;;;;;;4944442;28;20070;-70
2023/09/02 08:36:32;;;;;;;13.13;11.70;;;20.60;76.30;;;;;;4991023;28;20636;-72
2023/09/02 08:39:01;;;;;;;13.52;10.95;;;20.70;76.10;;;;;;5012906;28;20048;-69
2023/09/02 08:41:34;;;;;;;15.10;13.10;;;20.70;75.80;;;;;;5000879;28;20530;-72
2023/09/02 08:44:03;;;;;;;11.05;9.60;;;20.80;75.70;;;;;;5008866;28;20193;-70
2023/09/02 08:46:31;;;;;;;12.95;10.65;;;20.80;75.60;;;;;;5002179;28;20030;-71
2023/09/02 08:48:59;;;;;;;13.23;11.68;;;20.80;75.50;;;;;;5003997;28;20030;-69
2023/09/02 08:51:26;;;;;;;15.82;10.60;;;20.80;75.40;;;;;;5014328;28;20650;-70
2023/09/02 08:53:56;;;;;;;11.75;10.10;;;20.90;75.40;;;;;;5011540;28;20504;-70
2023/09/02 08:56:23;;;;;;;14.25;11.48;;;20.90;75.30;;;;;;5013106;28;20096;-69
2023/09/02 08:58:55;;;;;;;14.77;11.63;;;21.00;75.30;;;;;;5012099;28;20033;-70
2023/09/02 09:01:23;;;;;;;13.88;11.45;;;21.10;75.20;;;;;;5011789;28;20042;-70
2023/09/02 09:03:56;;;;;;;15.90;11.25;;;21.10;74.90;;;;;;5015378;28;20794;-69
2023/09/02 09:06:24;;;;;;;15.38;11.65;;;21.20;74.90;;;;;;5009447;28;20064;-70
2023/09/02 09:08:55;;;;;;;17.00;12.32;;;21.20;74.80;;;;;;5012309;28;20053;-70
2023/09/02 09:11:22;;;;;;;16.45;12.40;;;21.20;74.60;;;;;;5008453;28;20033;-70
2023/09/02 09:13:50;;;;;;;15.60;13.13;;;21.30;74.70;;;;;;5014886;28;20055;-69
2023/09/02 09:16:22;;;;;;;15.65;12.93;;;21.30;74.50;;;;;;5008117;28;20379;-69
2023/09/02 09:18:50;;;;;;;16.45;12.27;;;21.40;74.50;;;;;;5018359;28;20037;-72
2023/09/02 09:21:17;;;;;;;17.42;13.93;;;21.50;74.40;;;;;;5016131;28;20045;-70
2023/09/02 09:23:44;;;;;;;15.13;13.18;;;21.60;74.30;;;;;;5012076;28;20048;-69
2023/09/02 09:26:14;;;;;;;15.95;12.73;;;21.70;74.20;;;;;;5010799;28;20052;-70
2023/09/02 09:28:51;;;;;;;14.52;11.38;;;21.90;74.20;;;;;;5014995;28;20099;-69
2023/09/02 09:31:18;;;;;;;12.48;11.23;;;22.10;74.10;;;;;;5015131;28;20042;-69
2023/09/02 09:33:54;;;;;;;14.45;11.75;;;22.30;74.00;;;;;;5010520;28;20108;-72
2023/09/02 09:36:23;;;;;;;15.18;12.15;;;22.40;73.70;;;;;;5011344;28;20053;-70
2023/09/02 09:38:53;;;;;;;14.73;12.05;;;22.60;73.60;;;;;;5014794;28;20030;-70
2023/09/02 09:41:25;;;;;;;13.60;11.63;;;22.80;73.50;;;;;;5011024;28;20483;-71
2023/09/02 09:44:11;;;;;;;13.23;11.32;;;23.00;73.40;;;;;;5014456;28;20087;-69
2023/09/02 09:46:43;;;;;;;12.00;10.35;;;23.20;73.20;;;;;;5014541;28;20040;-72
2023/09/02 09:49:32;;;;;;;12.93;10.20;;;23.30;72.90;;;;;;5013370;28;20110;-69
2023/09/02 09:52:01;;;;;;;12.57;11.25;;;23.60;72.80;;;;;;5013858;28;20056;-70
2023/09/02 09:54:38;;;;;;;11.00;9.82;;;23.80;72.60;;;;;;5008805;28;20199;-72
2023/09/02 09:57:07;;;;;;;10.82;8.93;;;23.90;72.30;;;;;;5018563;28;20048;-72
2023/09/02 09:59:34;;;;;;;11.57;9.75;;;24.10;72.20;;;;;;5005063;28;20132;-72
2023/09/02 10:02:05;;;;;;;10.45;9.35;;;24.20;72.50;;;;;;5017644;28;20029;-70
2023/09/02 10:04:32;;;;;;;9.93;8.93;;;24.40;71.70;;;;;;5017380;28;20034;-71
2023/09/02 10:07:03;;;;;;;10.50;9.18;;;24.60;71.60;;;;;;5007375;28;20118;-71
2023/09/02 10:09:43;;;;;;;10.05;8.35;;;24.70;71.30;;;;;;5016724;28;20532;-71
2023/09/02 10:12:11;;;;;;;8.60;7.68;;;24.90;71.10;;;;;;5010764;28;20037;-70
2023/09/02 10:14:42;;;;;;;9.10;8.02;;;25.00;71.00;;;;;;5009682;28;20045;-72
2023/09/02 10:17:12;;;;;;;9.52;7.97;;;25.20;70.70;;;;;;5013165;28;20037;-73
2023/09/02 10:19:39;;;;;;;8.93;7.90;;;25.20;70.30;;;;;;5009044;28;20113;-71
2023/09/02 10:22:07;;;;;;;10.13;7.55;;;25.30;70.10;;;;;;5011840;28;20871;-70
2023/09/02 10:24:51;;;;;;;8.88;7.95;;;25.30;69.90;;;;;;5008289;28;20367;-70
2023/09/02 10:27:26;;;;;;;7.93;6.90;;;25.20;69.60;;;;;;5010534;28;20033;-69
2023/09/02 10:29:56;;;;;;;7.97;7.13;;;25.20;69.70;;;;;;5010707;28;20072;-69
2023/09/02 10:32:37;;;;;;;7.70;6.80;;;25.30;69.80;;;;;;5008613;28;20095;-69
2023/09/02 10:35:22;;;;;;;7.90;7.10;;;25.20;69.50;;;;;;5009223;28;20342;-70
2023/09/02 10:37:53;;;;;;;7.47;6.38;;;25.30;69.40;;;;;;5007968;28;20483;-72
2023/09/02 10:40:27;;;;;;;7.43;6.32;;;25.30;69.30;;;;;;5005166;28;20042;-70
2023/09/02 10:42:55;;;;;;;8.27;6.57;;;25.30;69.00;;;;;;5008447;28;20246;-70
2023/09/02 10:45:22;;;;;;;7.00;6.30;;;25.40;68.90;;;;;;5003237;28;20049;-70
2023/09/02 10:47:50;;;;;;;7.30;6.40;;;25.40;68.80;;;;;;5008320;28;20572;-70
2023/09/02 10:50:20;;;;;;;8.38;7.20;;;25.30;68.80;;;;;;5005578;28;20095;-69
2023/09/02 10:52:51;;;;;;;11.55;7.22;;;25.20;68.70;;;;;;5015286;28;20196;-69
2023/09/02 10:55:17;;;;;;;7.95;6.60;;;25.20;68.80;;;;;;5013492;28;20402;-70
2023/09/02 10:57:46;;;;;;;6.93;6.22;;;25.20;68.80;;;;;;5011542;28;20297;-69
2023/09/02 11:00:13;;;;;;;6.95;6.22;;;25.20;68.80;;;;;;5012242;28;20119;-69
2023/09/02 11:02:43;;;;;;;7.20;6.00;;;25.30;68.70;;;;;;5007380;28;20228;-69
2023/09/02 11:05:10;;;;;;;9.10;6.35;;;25.30;68.40;;;;;;5018474;28;20088;-69
2023/09/02 11:07:39;;;;;;;7.20;6.35;;;25.40;68.30;;;;;;5011469;28;20231;-71
2023/09/02 11:10:10;;;;;;;9.50;6.22;;;25.60;68.10;;;;;;5014945;28;20033;-69
2023/09/02 11:12:58;;;;;;;7.90;6.22;;;25.70;67.70;;;;;;5010445;28;20088;-70
2023/09/02 11:15:29;;;;;;;5.88;4.82;;;25.70;67.30;;;;;;5007577;28;20073;-72
2023/09/02 11:18:32;;;;;;;5.53;5.03;;;25.80;67.40;;;;;;5013150;28;21182;-72
2023/09/02 11:20:59;;;;;;;5.57;5.05;;;25.80;67.10;;;;;;5014111;28;20426;-69
2023/09/02 11:23:25;;;;;;;5.15;4.53;;;25.90;67.10;;;;;;5018826;28;20183;-69
2023/09/02 11:26:03;;;;;;;4.28;3.83;;;26.00;66.90;;;;;;5016843;28;20029;-70
2023/09/02 11:28:29;;;;;;;4.70;4.22;;;26.00;66.60;;;;;;5011377;28;20030;-69
2023/09/02 11:31:16;;;;;;;4.93;4.45;;;26.00;66.50;;;;;;5019046;28;20037;-69
2023/09/02 11:33:47;;;;;;;6.43;4.00;;;26.10;66.10;;;;;;5012570;28;20164;-67
2023/09/02 11:36:17;;;;;;;6.10;4.07;;;26.10;66.10;;;;;;5005179;28;20042;-68
2023/09/02 11:38:43;;;;;;;5.07;4.53;;;26.00;65.90;;;;;;5013003;28;20045;-70
2023/09/02 11:41:22;;;;;;;4.32;3.92;;;26.00;65.90;;;;;;5009961;28;20611;-69
2023/09/02 11:43:49;;;;;;;10.25;5.32;;;26.00;65.80;;;;;;5011923;28;20038;-70
2023/09/02 11:46:15;;;;;;;10.68;5.55;;;26.00;65.90;;;;;;5012242;28;20555;-70
2023/09/02 11:48:42;;;;;;;13.88;6.50;;;25.90;66.00;;;;;;5003910;28;20530;-68
2023/09/02 11:51:12;;;;;;;11.85;5.75;;;25.80;66.00;;;;;;5017509;28;20042;-70
2023/09/02 11:53:38;;;;;;;11.57;8.82;;;25.70;66.10;;;;;;5010981;28;20076;-68
2023/09/02 11:56:14;;;;;;;18.58;10.32;;;25.70;66.30;;;;;;5013597;28;20050;-69
2023/09/02 11:58:43;;;;;;;11.73;7.63;;;25.70;66.40;;;;;;5016932;28;20034;-71
2023/09/02 12:01:09;;;;;;;14.18;8.45;;;25.70;66.50;;;;;;5019544;28;20040;-70
2023/09/02 12:03:35;;;;;;;9.95;6.53;;;25.80;66.60;;;;;;5011202;28;20029;-68
2023/09/02 12:06:02;;;;;;;8.43;4.93;;;25.80;66.60;;;;;;5018411;28;20068;-69
2023/09/02 12:08:32;;;;;;;5.00;4.50;;;25.90;66.30;;;;;;5010074;28;20033;-69
2023/09/02 12:11:05;;;;;;;6.03;4.43;;;26.00;65.90;;;;;;5004170;28;20484;-70
2023/09/02 12:13:32;;;;;;;8.38;4.70;;;26.10;65.50;;;;;;5012017;28;20386;-70
2023/09/02 12:15:59;;;;;;;4.63;3.97;;;26.10;65.20;;;;;;5007477;28;20056;-71
2023/09/02 12:18:26;;;;;;;6.30;3.95;;;26.20;65.00;;;;;;5008522;28;20207;-70
2023/09/02 12:20:56;;;;;;;3.88;3.47;;;26.30;64.80;;;;;;5000265;28;20144;-69
2023/09/02 12:23:23;;;;;;;4.32;3.70;;;26.40;64.40;;;;;;5015387;28;20034;-70
2023/09/02 12:26:06;;;;;;;4.60;3.45;;;26.50;64.80;;;;;;5009239;28;20045;-70
2023/09/02 12:28:34;;;;;;;5.00;3.00;;;26.50;63.70;;;;;;5001936;28;20121;-69
2023/09/02 12:31:04;;;;;;;6.53;3.95;;;26.50;63.80;;;;;;5010005;28;20048;-72
2023/09/02 12:33:34;;;;;;;3.28;2.97;;;26.40;63.70;;;;;;5002530;28;20661;-69
2023/09/02 12:36:00;;;;;;;3.75;3.45;;;26.40;63.70;;;;;;5014963;28;20115;-69
2023/09/02 12:38:26;;;;;;;5.00;4.18;;;26.30;64.30;;;;;;5000837;28;20029;-68
2023/09/02 12:40:55;;;;;;;5.55;3.88;;;26.20;63.80;;;;;;5012537;28;20044;-72
2023/09/02 12:43:28;;;;;;;4.18;3.70;;;26.20;63.90;;;;;;5006141;28;20076;-69
2023/09/02 12:45:57;;;;;;;3.40;2.92;;;26.30;63.90;;;;;;5006545;28;20041;-70
2023/09/02 12:48:24;;;;;;;5.47;3.40;;;26.30;63.90;;;;;;5008546;28;20084;-72